Latest Weather Observations for Jimna

IDQ60901

Issued at 12:15 am EST Wednesday 3 September 2014 (issued every 10 minutes, with the page automatically refreshed every 10 minutes)

About weather observations | Map of Brisbane area stations | Latest observations for Brisbane area | Other Formats
Station Details ID: 040651 Name: JIMNA FORESTRY Lat: -26.66 Lon: 152.46 Height: 523.0 m
Data from the previous 72 hours. | See also: Recent months at Jimna
Date/Time
EST
Tmp

°C
App
Tmp
°C
Dew
Point
°C
Rel
Hum
%
Delta-T

°C
Wind Press
QNH
hPa
Press
MSL
hPa
Rain
since
9 am
mm
Dir
 
Spd
km/h
Gust
km/h
Spd
kts
Gust
kts
03/12:00am 11.6 - -0.5 43 5.0 - - - - - - - 0.0
 
Date/Time
EST
Tmp

°C
App
Tmp
°C
Dew
Point
°C
Rel
Hum
%
Delta-T

°C
Wind Press
QNH
hPa
Press
MSL
hPa
Rain
since
9 am
mm
Dir
 
Spd
km/h
Gust
km/h
Spd
kts
Gust
kts
02/11:30pm 11.9 - 0.7 46 4.8 - - - - - - - 0.0
02/11:00pm 12.2 - 0.9 46 4.9 - - - - - - - 0.0
02/10:30pm 12.8 - 1.2 45 5.1 - - - - - - - 0.0
02/10:00pm 13.2 - 1.2 44 5.3 - - - - - - - 0.0
02/09:30pm 13.8 - 1.1 42 5.6 - - - - - - - 0.0
02/09:00pm 14.6 - 0.8 39 6.1 - - - - - - - 0.0
02/08:30pm 15.4 - 0.0 35 6.7 - - - - - - - 0.0
02/08:00pm 16.1 - 0.7 35 6.9 - - - - - - - 0.0
02/07:30pm 16.6 - 1.9 37 6.8 - - - - - - - 0.0
02/07:00pm 17.1 - 3.1 39 6.6 - - - - - - - 0.0
02/06:30pm 18.0 - 2.3 35 7.4 - - - - - - - 0.0
02/06:00pm 18.3 - 1.3 32 7.8 - - - - - - - 0.0
02/05:30pm 19.4 - 0.9 29 8.5 - - - - - - - 0.0
02/05:00pm 20.8 - -0.5 24 9.6 - - - - - - - 0.0
02/04:30pm 22.2 - -0.5 22 10.4 - - - - - - - 0.0
02/04:00pm 23.1 - 2.0 25 10.2 - - - - - - - 0.0
02/03:30pm 22.6 - 2.1 26 9.9 - - - - - - - 0.0
02/03:00pm 22.7 - 4.2 30 9.3 - - - - - - - 0.0
02/02:30pm 23.3 - 4.8 30 9.4 - - - - - - - 0.0
02/02:00pm 23.2 - 5.1 31 9.3 - - - - - - - 0.0
02/01:30pm 23.0 - 4.5 30 9.4 - - - - - - - 0.0
02/01:00pm 22.3 - 5.3 33 8.7 - - - - - - - 0.0
02/12:30pm 22.3 - 5.7 34 8.6 - - - - - - - 0.0
02/12:00pm 21.8 - 8.7 43 7.1 - - - - - - - 0.0
02/11:30am 20.7 - 9.9 50 6.0 - - - - - - - 0.0
02/11:00am 18.6 - 9.1 54 5.1 - - - - - - - 0.0
02/10:30am 18.3 - 9.9 58 4.6 - - - - - - - 0.0
02/10:00am 18.1 - 8.9 55 4.9 - - - - - - - 0.0
02/09:30am 17.7 - 8.0 53 5.1 - - - - - - - 0.0
02/09:00am 17.6 - 9.2 58 4.5 - - - - - - - 0.0
02/08:30am 15.8 - 8.3 61 3.9 - - - - - - - 0.0
02/08:00am 14.7 - 8.4 66 3.3 - - - - - - - 0.0
02/07:30am 11.0 - 8.2 83 1.4 - - - - - - - 0.0
02/07:00am 9.8 - 7.4 85 1.2 - - - - - - - 0.0
02/06:30am 9.0 - 7.0 87 1.0 - - - - - - - 0.0
02/06:00am 8.4 - 6.4 87 0.9 - - - - - - - 0.0
02/05:30am 8.3 - 6.3 87 0.9 - - - - - - - 0.0
02/05:00am 8.3 - 6.4 88 0.9 - - - - - - - 0.0
02/04:30am 8.1 - 6.1 87 0.9 - - - - - - - 0.0
02/04:00am 8.5 - 6.3 86 1.0 - - - - - - - 0.0
02/03:30am 8.9 - 6.7 86 1.1 - - - - - - - 0.0
02/03:00am 8.7 - 6.3 85 1.1 - - - - - - - 0.0
02/02:30am 9.1 - 6.5 84 1.2 - - - - - - - 0.0
02/02:00am 9.5 - 6.4 81 1.5 - - - - - - - 0.0
02/01:30am 9.8 - 6.5 80 1.6 - - - - - - - 0.0
02/01:00am 10.4 - 6.5 77 1.9 - - - - - - - 0.0
02/12:30am 10.9 - 7.0 77 1.9 - - - - - - - 0.0
02/12:00am 10.7 - 7.2 79 1.7 - - - - - - - 0.0
 
Date/Time
EST
Tmp

°C
App
Tmp
°C
Dew
Point
°C
Rel
Hum
%
Delta-T

°C
Wind Press
QNH
hPa
Press
MSL
hPa
Rain
since
9 am
mm
Dir
 
Spd
km/h
Gust
km/h
Spd
kts
Gust
kts
01/11:30pm 11.1 - 7.6 79 1.7 - - - - - - - 0.0
01/11:00pm 11.4 - 7.7 78 1.8 - - - - - - - 0.0
01/10:30pm 11.7 - 7.6 76 2.0 - - - - - - - 0.0
01/10:00pm 11.9 - 7.4 74 2.2 - - - - - - - 0.0
01/09:30pm 12.5 - 7.4 71 2.5 - - - - - - - 0.0
01/09:00pm 12.8 - 7.5 70 2.7 - - - - - - - 0.0
01/08:30pm 12.4 - 6.9 69 2.7 - - - - - - - 0.0
01/08:00pm 12.3 - 5.7 64 3.2 - - - - - - - 0.0
01/07:30pm 11.7 - 4.4 61 3.4 - - - - - - - 0.0
01/07:00pm 12.8 - 4.3 56 4.0 - - - - - - - 0.0
01/06:30pm 14.0 - 3.5 49 4.9 - - - - - - - 0.0
01/06:00pm 15.6 - 3.1 43 5.8 - - - - - - - 0.0
01/05:30pm 16.9 - 4.3 43 6.1 - - - - - - - 0.0
01/05:00pm 18.5 - 2.4 34 7.6 - - - - - - - 0.0
01/04:30pm 20.8 - 3.5 32 8.5 - - - - - - - 0.0
01/04:00pm 21.0 - 4.6 34 8.2 - - - - - - - 0.0
01/03:30pm 22.2 - 2.3 27 9.6 - - - - - - - 0.0
01/03:00pm 22.1 - 2.2 27 9.6 - - - - - - - 0.0
01/02:30pm 22.0 - 2.2 27 9.5 - - - - - - - 0.0
01/02:00pm 22.0 - 2.2 27 9.5 - - - - - - - 0.0
01/01:30pm 21.9 - 1.5 26 9.7 - - - - - - - 0.0
01/01:00pm 22.0 - 3.2 29 9.2 - - - - - - - 0.0
01/12:30pm 21.3 - 2.1 28 9.2 - - - - - - - 0.0
01/12:00pm 20.6 - 2.9 31 8.6 - - - - - - - 0.0
01/11:30am 20.3 - 0.2 26 9.2 - - - - - - - 0.0
01/11:00am 20.6 - 5.8 38 7.6 - - - - - - - 0.0
01/10:30am 20.3 - 7.0 42 6.9 - - - - - - - 0.0
01/10:00am 19.3 - 7.4 46 6.2 - - - - - - - 0.0
01/09:30am 18.5 - 7.3 48 5.8 - - - - - - - 0.0
01/09:00am 17.8 - 10.4 62 4.1 - - - - - - - 0.0
01/08:30am 16.3 - 10.6 69 3.1 - - - - - - - 0.0
01/08:00am 14.1 - 12.1 88 1.1 - - - - - - - 0.0
01/07:30am 11.5 - 10.2 92 0.7 - - - - - - - 0.0
01/07:00am 9.2 - 8.3 94 0.4 - - - - - - - 0.0
01/06:30am 8.4 - 7.2 92 0.6 - - - - - - - 0.0
01/06:00am 8.5 - 7.1 91 0.7 - - - - - - - 0.0
01/05:30am 9.3 - 8.1 92 0.6 - - - - - - - 0.0
01/05:00am 9.6 - 8.0 90 0.8 - - - - - - - 0.0
01/04:30am 10.2 - 8.8 91 0.7 - - - - - - - 0.0
01/04:00am 10.9 - 9.3 90 0.8 - - - - - - - 0.0
01/03:30am 11.5 - 10.2 92 0.7 - - - - - - - 0.0
01/03:00am 11.8 - 10.2 90 0.8 - - - - - - - 0.0
01/02:30am 12.2 - 10.8 91 0.7 - - - - - - - 0.0
01/02:00am 12.5 - 11.1 91 0.8 - - - - - - - 0.0
01/01:30am 12.6 - 11.2 91 0.8 - - - - - - - 0.0
01/01:00am 12.7 - 11.3 91 0.8 - - - - - - - 0.0
01/12:30am 13.1 - 11.5 90 0.9 - - - - - - - 0.0
01/12:00am 13.6 - 12.0 90 0.9 - - - - - - - 0.0
 
Date/Time
EST
Tmp

°C
App
Tmp
°C
Dew
Point
°C
Rel
Hum
%
Delta-T

°C
Wind Press
QNH
hPa
Press
MSL
hPa
Rain
since
9 am
mm
Dir
 
Spd
km/h
Gust
km/h
Spd
kts
Gust
kts
31/11:30pm 13.7 - 11.9 89 1.0 - - - - - - - 0.0
31/11:00pm 13.8 - 12.0 89 1.0 - - - - - - - 0.0
31/10:30pm 13.8 - 12.0 89 1.0 - - - - - - - 0.0
31/10:00pm 13.7 - 11.6 87 1.2 - - - - - - - 0.0
31/09:30pm 13.6 - 11.3 86 1.3 - - - - - - - 0.0
31/09:00pm 13.6 - 11.3 86 1.3 - - - - - - - 0.0
31/08:30pm 13.6 - 11.1 85 1.4 - - - - - - - 0.0
31/08:00pm 13.9 - 11.1 83 1.5 - - - - - - - 0.0
31/07:30pm 14.5 - 11.1 80 1.9 - - - - - - - 0.0
31/07:00pm 15.1 - 11.1 77 2.2 - - - - - - - 0.0
31/06:30pm 15.6 - 11.2 75 2.4 - - - - - - - 0.0
31/06:00pm 16.4 - 11.1 71 2.9 - - - - - - - 0.0
31/05:30pm 17.2 - 10.6 65 3.6 - - - - - - - 0.0
31/05:00pm 16.8 - 5.4 47 5.6 - - - - - - - 0.0
31/04:30pm 19.1 - 5.9 42 6.7 - - - - - - - 0.0
31/04:00pm 21.3 - 3.0 30 8.9 - - - - - - - 0.0
31/03:30pm 21.4 - 5.7 36 8.0 - - - - - - - 0.0
31/03:00pm 21.5 - 5.0 34 8.4 - - - - - - - 0.0
31/02:30pm 21.6 - 4.7 33 8.5 - - - - - - - 0.0
31/02:00pm 20.9 - 5.7 37 7.8 - - - - - - - 0.0
31/01:30pm 20.5 - 5.3 37 7.7 - - - - - - - 0.0
31/01:00pm 21.3 - 6.8 39 7.6 - - - - - - - 0.0
31/12:30pm 21.1 - 7.0 40 7.4 - - - - - - - 0.0
31/12:00pm 20.7 - 7.0 41 7.2 - - - - - - - 0.0
31/11:30am 20.2 - 7.2 43 6.8 - - - - - - - 0.0
31/11:00am 19.1 - 7.8 48 5.9 - - - - - - - 0.0
31/10:30am 18.8 - 8.2 50 5.6 - - - - - - - 0.0
31/10:00am 18.0 - 8.0 52 5.2 - - - - - - - 0.0
31/09:30am 17.5 - 9.7 60 4.2 - - - - - - - 0.0
31/09:00am 15.9 - 8.2 60 4.0 - - - - - - - 0.0
31/08:30am 15.0 - 9.1 68 3.1 - - - - - - - 0.0
31/08:00am 12.3 - 10.0 86 1.2 - - - - - - - 0.0
31/07:30am 9.7 - 8.1 90 0.8 - - - - - - - 0.0
31/07:00am 7.3 - 6.2 93 0.5 - - - - - - - 0.0
31/06:30am 6.5 - 5.3 92 0.5 - - - - - - - 0.0
31/06:00am 6.9 - 5.7 92 0.6 - - - - - - - 0.0
31/05:30am 6.9 - 5.5 91 0.6 - - - - - - - 0.0
31/05:00am 7.4 - 6.0 91 0.7 - - - - - - - 0.0
31/04:30am 8.1 - 6.7 91 0.7 - - - - - - - 0.0
31/04:00am 8.4 - 6.9 90 0.7 - - - - - - - 0.0
31/03:30am 8.8 - 6.9 88 0.9 - - - - - - - 0.0
31/03:00am 9.5 - 7.6 88 0.9 - - - - - - - 0.0
31/02:30am 10.0 - 8.1 88 0.9 - - - - - - - 0.0
31/02:00am 10.0 - 8.1 88 0.9 - - - - - - - 0.0
31/01:30am 10.0 - 8.1 88 0.9 - - - - - - - 0.0
31/01:00am 9.8 - 7.9 88 0.9 - - - - - - - 0.0
31/12:30am 9.6 - 7.9 89 0.8 - - - - - - - 0.0

Latest Capital City Observations: Canberra | Sydney | Melbourne | Brisbane | Adelaide | Perth | Hobart | Darwin

Other Formats:

Comma delimited format used in spreadsheet applications
http://www.bom.gov.au/fwo/IDQ60901/IDQ60901.94557.axf

JavaScript Object Notation format (JSON) in row-major order
http://www.bom.gov.au/fwo/IDQ60901/IDQ60901.94557.json